sensor_id;sensor_type;location;lat;lon;timestamp;P1;durP1;ratioP1;P2;durP2;ratioP2
44366;SDS011;30086;57.660;12.000;2023-05-02T00:02:20;2.08;;;0.50;;
44366;SDS011;30086;57.660;12.000;2023-05-02T00:05:07;0.20;;;0.15;;
44366;SDS011;30086;57.660;12.000;2023-05-02T00:11:12;0.20;;;0.20;;
44366;SDS011;30086;57.660;12.000;2023-05-02T00:14:18;1.25;;;0.85;;
44366;SDS011;30086;57.660;12.000;2023-05-02T00:17:17;1.45;;;0.90;;
44366;SDS011;30086;57.660;12.000;2023-05-02T00:19:44;0.40;;;0.40;;
44366;SDS011;30086;57.660;12.000;2023-05-02T00:22:33;0.77;;;0.70;;
44366;SDS011;30086;57.660;12.000;2023-05-02T00:25:28;0.20;;;0.20;;
44366;SDS011;30086;57.660;12.000;2023-05-02T00:37:38;0.90;;;0.60;;
44366;SDS011;30086;57.660;12.000;2023-05-02T00:43:47;1.00;;;0.80;;
44366;SDS011;30086;57.660;12.000;2023-05-02T00:46:14;1.33;;;0.80;;
44366;SDS011;30086;57.660;12.000;2023-05-02T00:52:16;1.63;;;0.88;;
44366;SDS011;30086;57.660;12.000;2023-05-02T00:58:24;1.15;;;0.55;;
44366;SDS011;30086;57.660;12.000;2023-05-02T01:13:25;1.45;;;0.90;;
44366;SDS011;30086;57.660;12.000;2023-05-02T01:19:28;2.63;;;1.00;;
44366;SDS011;30086;57.660;12.000;2023-05-02T01:31:07;1.70;;;1.13;;
44366;SDS011;30086;57.660;12.000;2023-05-02T01:33:58;1.90;;;1.55;;
44366;SDS011;30086;57.660;12.000;2023-05-02T01:37:12;1.95;;;1.45;;
44366;SDS011;30086;57.660;12.000;2023-05-02T01:40:14;2.05;;;1.48;;
44366;SDS011;30086;57.660;12.000;2023-05-02T01:43:03;1.67;;;1.20;;
44366;SDS011;30086;57.660;12.000;2023-05-02T01:48:26;1.75;;;1.38;;
44366;SDS011;30086;57.660;12.000;2023-05-02T01:50:58;2.53;;;1.35;;
44366;SDS011;30086;57.660;12.000;2023-05-02T01:53:32;1.20;;;0.93;;
44366;SDS011;30086;57.660;12.000;2023-05-02T01:56:03;2.03;;;1.40;;
44366;SDS011;30086;57.660;12.000;2023-05-02T01:58:44;1.90;;;1.50;;
44366;SDS011;30086;57.660;12.000;2023-05-02T02:01:13;7.93;;;1.83;;
44366;SDS011;30086;57.660;12.000;2023-05-02T02:04:22;6.00;;;1.70;;
44366;SDS011;30086;57.660;12.000;2023-05-02T02:07:34;3.03;;;1.67;;
44366;SDS011;30086;57.660;12.000;2023-05-02T02:10:03;3.55;;;2.20;;
44366;SDS011;30086;57.660;12.000;2023-05-02T02:12:39;3.00;;;2.05;;
44366;SDS011;30086;57.660;12.000;2023-05-02T02:15:27;3.58;;;2.10;;
44366;SDS011;30086;57.660;12.000;2023-05-02T02:18:09;4.05;;;2.00;;
44366;SDS011;30086;57.660;12.000;2023-05-02T02:20:53;2.78;;;2.00;;
44366;SDS011;30086;57.660;12.000;2023-05-02T02:23:52;3.30;;;2.08;;
44366;SDS011;30086;57.660;12.000;2023-05-02T02:26:43;2.15;;;1.70;;
44366;SDS011;30086;57.660;12.000;2023-05-02T02:29:29;3.28;;;2.22;;
44366;SDS011;30086;57.660;12.000;2023-05-02T02:31:58;4.22;;;2.55;;
44366;SDS011;30086;57.660;12.000;2023-05-02T02:35:07;3.40;;;2.38;;
44366;SDS011;30086;57.660;12.000;2023-05-02T02:40:44;2.97;;;2.10;;
44366;SDS011;30086;57.660;12.000;2023-05-02T02:49:21;5.95;;;2.47;;
44366;SDS011;30086;57.660;12.000;2023-05-02T02:52:22;4.55;;;2.60;;
44366;SDS011;30086;57.660;12.000;2023-05-02T03:03:23;7.10;;;2.85;;
44366;SDS011;30086;57.660;12.000;2023-05-02T03:06:08;4.97;;;2.63;;
44366;SDS011;30086;57.660;12.000;2023-05-02T03:08:39;6.10;;;2.80;;
44366;SDS011;30086;57.660;12.000;2023-05-02T03:11:25;5.53;;;3.13;;
44366;SDS011;30086;57.660;12.000;2023-05-02T03:14:11;4.28;;;2.75;;
44366;SDS011;30086;57.660;12.000;2023-05-02T03:16:49;8.43;;;3.75;;
44366;SDS011;30086;57.660;12.000;2023-05-02T03:19:20;6.65;;;3.55;;
44366;SDS011;30086;57.660;12.000;2023-05-02T03:21:49;8.30;;;3.60;;
44366;SDS011;30086;57.660;12.000;2023-05-02T03:24:18;6.95;;;3.67;;
44366;SDS011;30086;57.660;12.000;2023-05-02T03:26:54;6.28;;;2.80;;
44366;SDS011;30086;57.660;12.000;2023-05-02T03:29:23;6.25;;;3.40;;
44366;SDS011;30086;57.660;12.000;2023-05-02T03:32:00;12.23;;;3.50;;
44366;SDS011;30086;57.660;12.000;2023-05-02T03:34:41;8.27;;;3.50;;
44366;SDS011;30086;57.660;12.000;2023-05-02T03:37:07;6.15;;;3.72;;
44366;SDS011;30086;57.660;12.000;2023-05-02T03:39:33;6.25;;;2.67;;
44366;SDS011;30086;57.660;12.000;2023-05-02T03:42:08;7.10;;;3.67;;
44366;SDS011;30086;57.660;12.000;2023-05-02T03:45:05;9.90;;;3.83;;
44366;SDS011;30086;57.660;12.000;2023-05-02T03:47:43;8.60;;;4.35;;
44366;SDS011;30086;57.660;12.000;2023-05-02T03:50:09;8.38;;;4.15;;
44366;SDS011;30086;57.660;12.000;2023-05-02T03:52:59;6.53;;;3.55;;
44366;SDS011;30086;57.660;12.000;2023-05-02T03:55:50;7.60;;;4.28;;
44366;SDS011;30086;57.660;12.000;2023-05-02T03:58:49;7.78;;;3.75;;
44366;SDS011;30086;57.660;12.000;2023-05-02T04:01:47;7.20;;;4.15;;
44366;SDS011;30086;57.660;12.000;2023-05-02T04:04:26;9.43;;;3.47;;
44366;SDS011;30086;57.660;12.000;2023-05-02T04:07:13;6.93;;;3.72;;
44366;SDS011;30086;57.660;12.000;2023-05-02T04:10:02;6.95;;;3.80;;
44366;SDS011;30086;57.660;12.000;2023-05-02T04:12:29;4.80;;;3.35;;
44366;SDS011;30086;57.660;12.000;2023-05-02T04:14:56;5.68;;;3.30;;
44366;SDS011;30086;57.660;12.000;2023-05-02T04:17:25;5.47;;;3.10;;
44366;SDS011;30086;57.660;12.000;2023-05-02T04:19:52;4.97;;;2.97;;
44366;SDS011;30086;57.660;12.000;2023-05-02T04:22:18;8.18;;;2.97;;
44366;SDS011;30086;57.660;12.000;2023-05-02T04:25:06;6.10;;;3.03;;
44366;SDS011;30086;57.660;12.000;2023-05-02T04:27:52;6.82;;;2.85;;
44366;SDS011;30086;57.660;12.000;2023-05-02T04:30:22;10.13;;;2.92;;
44366;SDS011;30086;57.660;12.000;2023-05-02T04:32:53;3.63;;;2.90;;
44366;SDS011;30086;57.660;12.000;2023-05-02T04:36:00;5.20;;;2.40;;
44366;SDS011;30086;57.660;12.000;2023-05-02T04:38:48;7.20;;;3.20;;
44366;SDS011;30086;57.660;12.000;2023-05-02T04:41:23;5.15;;;2.85;;
44366;SDS011;30086;57.660;12.000;2023-05-02T04:44:29;9.18;;;2.60;;
44366;SDS011;30086;57.660;12.000;2023-05-02T04:47:15;3.47;;;2.65;;
44366;SDS011;30086;57.660;12.000;2023-05-02T04:50:13;3.92;;;2.58;;
44366;SDS011;30086;57.660;12.000;2023-05-02T04:59:16;5.83;;;2.33;;
44366;SDS011;30086;57.660;12.000;2023-05-02T05:02:02;6.75;;;2.53;;
44366;SDS011;30086;57.660;12.000;2023-05-02T05:04:47;4.22;;;2.72;;
44366;SDS011;30086;57.660;12.000;2023-05-02T05:07:51;3.38;;;2.30;;
44366;SDS011;30086;57.660;12.000;2023-05-02T05:10:45;2.55;;;2.00;;
44366;SDS011;30086;57.660;12.000;2023-05-02T05:13:46;4.13;;;2.58;;
44366;SDS011;30086;57.660;12.000;2023-05-02T05:16:12;3.75;;;0.73;;
44366;SDS011;30086;57.660;12.000;2023-05-02T05:19:22;5.13;;;2.00;;
44366;SDS011;30086;57.660;12.000;2023-05-02T05:22:09;4.75;;;2.10;;
44366;SDS011;30086;57.660;12.000;2023-05-02T05:24:52;6.75;;;2.08;;
44366;SDS011;30086;57.660;12.000;2023-05-02T05:33:46;3.03;;;1.25;;
44366;SDS011;30086;57.660;12.000;2023-05-02T05:36:41;3.17;;;1.48;;
44366;SDS011;30086;57.660;12.000;2023-05-02T05:39:07;2.83;;;1.35;;
44366;SDS011;30086;57.660;12.000;2023-05-02T05:45:21;1.90;;;1.30;;
44366;SDS011;30086;57.660;12.000;2023-05-02T05:48:17;2.03;;;1.40;;
44366;SDS011;30086;57.660;12.000;2023-05-02T05:51:02;2.03;;;1.42;;
44366;SDS011;30086;57.660;12.000;2023-05-02T05:57:20;2.05;;;1.30;;
44366;SDS011;30086;57.660;12.000;2023-05-02T06:03:23;5.22;;;1.35;;
44366;SDS011;30086;57.660;12.000;2023-05-02T06:06:03;3.53;;;1.40;;
44366;SDS011;30086;57.660;12.000;2023-05-02T06:17:52;4.93;;;1.02;;
44366;SDS011;30086;57.660;12.000;2023-05-02T06:20:22;6.13;;;2.33;;
44366;SDS011;30086;57.660;12.000;2023-05-02T06:23:03;3.65;;;1.70;;
44366;SDS011;30086;57.660;12.000;2023-05-02T06:25:39;2.35;;;1.55;;
44366;SDS011;30086;57.660;12.000;2023-05-02T06:28:29;1.80;;;1.33;;
44366;SDS011;30086;57.660;12.000;2023-05-02T06:31:43;6.55;;;2.00;;
44366;SDS011;30086;57.660;12.000;2023-05-02T06:34:52;2.95;;;1.50;;
44366;SDS011;30086;57.660;12.000;2023-05-02T06:37:33;3.10;;;1.70;;
44366;SDS011;30086;57.660;12.000;2023-05-02T06:40:53;5.53;;;1.83;;
44366;SDS011;30086;57.660;12.000;2023-05-02T06:44:01;2.92;;;1.63;;
44366;SDS011;30086;57.660;12.000;2023-05-02T06:47:06;2.20;;;1.02;;
44366;SDS011;30086;57.660;12.000;2023-05-02T06:53:07;4.07;;;2.60;;
44366;SDS011;30086;57.660;12.000;2023-05-02T06:55:50;11.82;;;3.10;;
44366;SDS011;30086;57.660;12.000;2023-05-02T07:01:30;4.85;;;1.73;;
44366;SDS011;30086;57.660;12.000;2023-05-02T07:09:45;4.22;;;1.90;;
44366;SDS011;30086;57.660;12.000;2023-05-02T07:12:53;3.78;;;1.83;;
44366;SDS011;30086;57.660;12.000;2023-05-02T07:15:41;4.38;;;1.75;;
44366;SDS011;30086;57.660;12.000;2023-05-02T07:18:45;3.88;;;1.65;;
44366;SDS011;30086;57.660;12.000;2023-05-02T07:21:31;2.42;;;1.10;;
44366;SDS011;30086;57.660;12.000;2023-05-02T07:30:07;1.67;;;1.23;;
44366;SDS011;30086;57.660;12.000;2023-05-02T07:32:39;2.95;;;1.60;;
44366;SDS011;30086;57.660;12.000;2023-05-02T07:35:11;1.80;;;1.48;;
44366;SDS011;30086;57.660;12.000;2023-05-02T07:37:40;1.58;;;0.98;;
44366;SDS011;30086;57.660;12.000;2023-05-02T07:40:26;4.53;;;1.65;;
44366;SDS011;30086;57.660;12.000;2023-05-02T07:43:25;1.55;;;0.80;;
44366;SDS011;30086;57.660;12.000;2023-05-02T07:46:23;1.27;;;0.50;;
44366;SDS011;30086;57.660;12.000;2023-05-02T07:49:23;2.83;;;0.85;;
44366;SDS011;30086;57.660;12.000;2023-05-02T07:51:57;3.20;;;1.25;;
44366;SDS011;30086;57.660;12.000;2023-05-02T07:54:46;3.63;;;1.75;;
44366;SDS011;30086;57.660;12.000;2023-05-02T07:57:32;2.72;;;0.90;;
44366;SDS011;30086;57.660;12.000;2023-05-02T08:00:14;1.67;;;0.60;;
44366;SDS011;30086;57.660;12.000;2023-05-02T08:02:40;2.10;;;1.10;;
44366;SDS011;30086;57.660;12.000;2023-05-02T08:05:12;2.88;;;0.85;;
44366;SDS011;30086;57.660;12.000;2023-05-02T08:07:40;2.88;;;1.15;;
44366;SDS011;30086;57.660;12.000;2023-05-02T08:10:11;5.50;;;0.93;;
44366;SDS011;30086;57.660;12.000;2023-05-02T08:12:41;1.77;;;0.98;;
44366;SDS011;30086;57.660;12.000;2023-05-02T08:15:10;3.55;;;0.93;;
44366;SDS011;30086;57.660;12.000;2023-05-02T08:17:45;1.00;;;0.73;;
44366;SDS011;30086;57.660;12.000;2023-05-02T08:20:34;3.40;;;0.82;;
44366;SDS011;30086;57.660;12.000;2023-05-02T08:23:01;1.38;;;0.70;;
44366;SDS011;30086;57.660;12.000;2023-05-02T08:25:27;0.80;;;0.65;;
44366;SDS011;30086;57.660;12.000;2023-05-02T08:28:13;1.48;;;1.05;;
44366;SDS011;30086;57.660;12.000;2023-05-02T08:30:59;1.50;;;0.73;;
44366;SDS011;30086;57.660;12.000;2023-05-02T08:33:27;1.95;;;0.77;;
44366;SDS011;30086;57.660;12.000;2023-05-02T08:35:55;2.35;;;0.70;;
44366;SDS011;30086;57.660;12.000;2023-05-02T08:38:41;1.17;;;0.55;;
44366;SDS011;30086;57.660;12.000;2023-05-02T08:41:28;5.30;;;0.68;;
44366;SDS011;30086;57.660;12.000;2023-05-02T08:43:56;1.05;;;0.63;;
44366;SDS011;30086;57.660;12.000;2023-05-02T08:46:22;0.77;;;0.55;;
44366;SDS011;30086;57.660;12.000;2023-05-02T08:48:50;1.80;;;1.08;;
44366;SDS011;30086;57.660;12.000;2023-05-02T08:51:17;5.97;;;0.88;;
44366;SDS011;30086;57.660;12.000;2023-05-02T08:53:43;1.70;;;0.60;;
44366;SDS011;30086;57.660;12.000;2023-05-02T08:56:10;1.92;;;0.60;;
44366;SDS011;30086;57.660;12.000;2023-05-02T08:58:37;0.70;;;0.35;;
44366;SDS011;30086;57.660;12.000;2023-05-02T09:01:08;0.90;;;0.65;;
44366;SDS011;30086;57.660;12.000;2023-05-02T09:03:34;1.88;;;0.70;;
44366;SDS011;30086;57.660;12.000;2023-05-02T09:08:34;1.75;;;0.52;;
44366;SDS011;30086;57.660;12.000;2023-05-02T09:11:00;2.47;;;0.70;;
44366;SDS011;30086;57.660;12.000;2023-05-02T09:16:07;1.13;;;0.80;;
44366;SDS011;30086;57.660;12.000;2023-05-02T09:21:00;2.47;;;1.13;;
44366;SDS011;30086;57.660;12.000;2023-05-02T09:26:13;0.95;;;0.70;;
44366;SDS011;30086;57.660;12.000;2023-05-02T09:28:41;4.18;;;1.33;;
44366;SDS011;30086;57.660;12.000;2023-05-02T09:31:08;1.75;;;0.82;;
44366;SDS011;30086;57.660;12.000;2023-05-02T09:33:34;1.27;;;1.05;;
44366;SDS011;30086;57.660;12.000;2023-05-02T09:36:00;0.90;;;0.85;;
44366;SDS011;30086;57.660;12.000;2023-05-02T09:38:31;0.40;;;0.40;;
44366;SDS011;30086;57.660;12.000;2023-05-02T09:40:58;1.75;;;0.88;;
44366;SDS011;30086;57.660;12.000;2023-05-02T09:43:29;1.02;;;0.60;;
44366;SDS011;30086;57.660;12.000;2023-05-02T09:45:58;4.38;;;1.30;;
44366;SDS011;30086;57.660;12.000;2023-05-02T09:48:56;1.17;;;0.90;;
44366;SDS011;30086;57.660;12.000;2023-05-02T09:51:50;1.00;;;0.80;;
44366;SDS011;30086;57.660;12.000;2023-05-02T09:54:40;3.80;;;0.77;;
44366;SDS011;30086;57.660;12.000;2023-05-02T09:57:18;3.20;;;0.88;;
44366;SDS011;30086;57.660;12.000;2023-05-02T10:02:42;1.33;;;0.85;;
44366;SDS011;30086;57.660;12.000;2023-05-02T10:05:14;1.58;;;0.63;;
44366;SDS011;30086;57.660;12.000;2023-05-02T10:07:47;0.93;;;0.60;;
44366;SDS011;30086;57.660;12.000;2023-05-02T10:10:13;1.33;;;0.80;;
44366;SDS011;30086;57.660;12.000;2023-05-02T10:12:43;0.60;;;0.57;;
44366;SDS011;30086;57.660;12.000;2023-05-02T10:15:10;0.73;;;0.73;;
44366;SDS011;30086;57.660;12.000;2023-05-02T10:17:39;3.13;;;0.88;;
44366;SDS011;30086;57.660;12.000;2023-05-02T10:20:12;1.35;;;0.73;;
44366;SDS011;30086;57.660;12.000;2023-05-02T10:22:41;0.93;;;0.70;;
44366;SDS011;30086;57.660;12.000;2023-05-02T10:25:08;1.05;;;0.70;;
44366;SDS011;30086;57.660;12.000;2023-05-02T10:27:36;3.17;;;0.85;;
44366;SDS011;30086;57.660;12.000;2023-05-02T10:30:02;0.88;;;0.50;;
44366;SDS011;30086;57.660;12.000;2023-05-02T10:32:33;4.60;;;1.00;;
44366;SDS011;30086;57.660;12.000;2023-05-02T10:35:03;2.28;;;0.52;;
44366;SDS011;30086;57.660;12.000;2023-05-02T10:37:30;4.32;;;0.88;;
44366;SDS011;30086;57.660;12.000;2023-05-02T10:39:59;2.92;;;0.93;;
44366;SDS011;30086;57.660;12.000;2023-05-02T10:42:26;2.90;;;0.80;;
44366;SDS011;30086;57.660;12.000;2023-05-02T10:44:52;0.73;;;0.63;;
44366;SDS011;30086;57.660;12.000;2023-05-02T10:47:25;1.80;;;0.77;;
44366;SDS011;30086;57.660;12.000;2023-05-02T10:49:55;0.65;;;0.55;;
44366;SDS011;30086;57.660;12.000;2023-05-02T10:52:28;3.85;;;0.95;;
44366;SDS011;30086;57.660;12.000;2023-05-02T10:55:17;2.83;;;0.80;;
44366;SDS011;30086;57.660;12.000;2023-05-02T11:00:28;0.57;;;0.47;;
44366;SDS011;30086;57.660;12.000;2023-05-02T11:02:55;3.63;;;0.80;;
44366;SDS011;30086;57.660;12.000;2023-05-02T11:05:21;5.40;;;0.85;;
44366;SDS011;30086;57.660;12.000;2023-05-02T11:07:48;2.13;;;0.68;;
44366;SDS011;30086;57.660;12.000;2023-05-02T11:18:09;3.75;;;0.70;;
44366;SDS011;30086;57.660;12.000;2023-05-02T11:20:42;2.00;;;0.82;;
44366;SDS011;30086;57.660;12.000;2023-05-02T11:26:00;0.90;;;0.68;;
44366;SDS011;30086;57.660;12.000;2023-05-02T11:28:47;3.45;;;1.00;;
44366;SDS011;30086;57.660;12.000;2023-05-02T11:33:58;1.60;;;0.82;;
44366;SDS011;30086;57.660;12.000;2023-05-02T11:36:28;1.20;;;0.52;;
44366;SDS011;30086;57.660;12.000;2023-05-02T11:38:54;1.02;;;0.75;;
44366;SDS011;30086;57.660;12.000;2023-05-02T11:41:20;1.83;;;0.70;;
44366;SDS011;30086;57.660;12.000;2023-05-02T11:43:46;5.53;;;0.77;;
44366;SDS011;30086;57.660;12.000;2023-05-02T11:46:14;0.35;;;0.35;;
44366;SDS011;30086;57.660;12.000;2023-05-02T11:48:41;1.02;;;0.60;;
44366;SDS011;30086;57.660;12.000;2023-05-02T11:51:11;0.63;;;0.47;;
44366;SDS011;30086;57.660;12.000;2023-05-02T11:53:39;1.63;;;0.60;;
44366;SDS011;30086;57.660;12.000;2023-05-02T11:56:45;2.25;;;0.57;;
44366;SDS011;30086;57.660;12.000;2023-05-02T11:59:14;1.65;;;0.55;;
44366;SDS011;30086;57.660;12.000;2023-05-02T12:01:48;2.42;;;0.65;;
44366;SDS011;30086;57.660;12.000;2023-05-02T12:04:18;1.00;;;0.77;;
44366;SDS011;30086;57.660;12.000;2023-05-02T12:06:55;2.60;;;1.50;;
44366;SDS011;30086;57.660;12.000;2023-05-02T12:12:50;0.40;;;0.40;;
44366;SDS011;30086;57.660;12.000;2023-05-02T12:15:17;3.63;;;0.68;;
44366;SDS011;30086;57.660;12.000;2023-05-02T12:17:45;3.47;;;0.90;;
44366;SDS011;30086;57.660;12.000;2023-05-02T12:20:35;5.13;;;0.50;;
44366;SDS011;30086;57.660;12.000;2023-05-02T12:23:40;3.15;;;0.88;;
44366;SDS011;30086;57.660;12.000;2023-05-02T12:26:20;0.45;;;0.45;;
44366;SDS011;30086;57.660;12.000;2023-05-02T12:29:07;1.88;;;0.60;;
44366;SDS011;30086;57.660;12.000;2023-05-02T12:31:33;1.77;;;1.10;;
44366;SDS011;30086;57.660;12.000;2023-05-02T12:34:04;0.82;;;0.65;;
44366;SDS011;30086;57.660;12.000;2023-05-02T12:39:59;2.40;;;1.05;;
44366;SDS011;30086;57.660;12.000;2023-05-02T12:42:26;1.80;;;1.52;;
44366;SDS011;30086;57.660;12.000;2023-05-02T12:45:03;0.35;;;0.35;;
44366;SDS011;30086;57.660;12.000;2023-05-02T12:50:51;2.20;;;0.73;;
44366;SDS011;30086;57.660;12.000;2023-05-02T12:56:40;2.28;;;0.32;;
44366;SDS011;30086;57.660;12.000;2023-05-02T12:59:08;0.50;;;0.50;;
44366;SDS011;30086;57.660;12.000;2023-05-02T13:01:53;0.47;;;0.40;;
44366;SDS011;30086;57.660;12.000;2023-05-02T13:04:39;2.22;;;0.70;;
44366;SDS011;30086;57.660;12.000;2023-05-02T13:07:30;4.88;;;0.93;;
44366;SDS011;30086;57.660;12.000;2023-05-02T13:09:59;2.53;;;0.93;;
44366;SDS011;30086;57.660;12.000;2023-05-02T13:12:25;2.20;;;0.80;;
44366;SDS011;30086;57.660;12.000;2023-05-02T13:15:11;3.15;;;0.88;;
44366;SDS011;30086;57.660;12.000;2023-05-02T13:17:58;2.45;;;0.80;;
44366;SDS011;30086;57.660;12.000;2023-05-02T13:20:46;1.05;;;0.60;;
44366;SDS011;30086;57.660;12.000;2023-05-02T13:23:37;0.50;;;0.47;;
44366;SDS011;30086;57.660;12.000;2023-05-02T13:26:23;0.60;;;0.50;;
44366;SDS011;30086;57.660;12.000;2023-05-02T13:29:09;0.68;;;0.47;;
44366;SDS011;30086;57.660;12.000;2023-05-02T13:31:56;3.67;;;1.00;;
44366;SDS011;30086;57.660;12.000;2023-05-02T13:34:22;0.98;;;0.60;;
44366;SDS011;30086;57.660;12.000;2023-05-02T13:36:52;3.38;;;0.77;;
44366;SDS011;30086;57.660;12.000;2023-05-02T13:39:27;4.95;;;0.93;;
44366;SDS011;30086;57.660;12.000;2023-05-02T13:42:14;1.20;;;0.40;;
44366;SDS011;30086;57.660;12.000;2023-05-02T13:44:40;0.77;;;0.50;;
44366;SDS011;30086;57.660;12.000;2023-05-02T13:47:08;1.55;;;0.57;;
44366;SDS011;30086;57.660;12.000;2023-05-02T13:49:38;2.80;;;1.10;;
44366;SDS011;30086;57.660;12.000;2023-05-02T13:52:05;1.70;;;0.80;;
44366;SDS011;30086;57.660;12.000;2023-05-02T13:54:35;5.95;;;1.02;;
44366;SDS011;30086;57.660;12.000;2023-05-02T13:57:11;0.85;;;0.70;;
44366;SDS011;30086;57.660;12.000;2023-05-02T13:59:40;2.03;;;1.00;;
44366;SDS011;30086;57.660;12.000;2023-05-02T14:02:47;1.10;;;0.80;;
44366;SDS011;30086;57.660;12.000;2023-05-02T14:05:13;0.60;;;0.40;;
44366;SDS011;30086;57.660;12.000;2023-05-02T14:08:19;5.15;;;1.10;;
44366;SDS011;30086;57.660;12.000;2023-05-02T14:10:56;2.00;;;0.70;;
44366;SDS011;30086;57.660;12.000;2023-05-02T14:13:22;2.72;;;1.05;;
44366;SDS011;30086;57.660;12.000;2023-05-02T14:15:48;2.55;;;0.85;;
44366;SDS011;30086;57.660;12.000;2023-05-02T14:18:38;3.95;;;1.30;;
44366;SDS011;30086;57.660;12.000;2023-05-02T14:21:09;0.90;;;0.63;;
44366;SDS011;30086;57.660;12.000;2023-05-02T14:23:51;1.63;;;0.80;;
44366;SDS011;30086;57.660;12.000;2023-05-02T14:26:17;2.15;;;0.70;;
44366;SDS011;30086;57.660;12.000;2023-05-02T14:29:03;3.10;;;0.80;;
44366;SDS011;30086;57.660;12.000;2023-05-02T14:31:31;0.57;;;0.50;;
44366;SDS011;30086;57.660;12.000;2023-05-02T14:34:03;1.15;;;0.63;;
44366;SDS011;30086;57.660;12.000;2023-05-02T14:36:43;1.13;;;0.85;;
44366;SDS011;30086;57.660;12.000;2023-05-02T14:39:09;3.00;;;1.02;;
44366;SDS011;30086;57.660;12.000;2023-05-02T14:41:40;2.58;;;0.85;;
44366;SDS011;30086;57.660;12.000;2023-05-02T14:44:07;2.67;;;1.20;;
44366;SDS011;30086;57.660;12.000;2023-05-02T14:46:33;3.70;;;0.82;;
44366;SDS011;30086;57.660;12.000;2023-05-02T14:48:59;2.00;;;0.82;;
44366;SDS011;30086;57.660;12.000;2023-05-02T14:51:27;0.57;;;0.47;;
44366;SDS011;30086;57.660;12.000;2023-05-02T14:53:53;2.03;;;1.00;;
44366;SDS011;30086;57.660;12.000;2023-05-02T14:56:19;3.67;;;0.60;;
44366;SDS011;30086;57.660;12.000;2023-05-02T14:59:03;1.83;;;0.95;;
44366;SDS011;30086;57.660;12.000;2023-05-02T15:01:46;0.95;;;0.60;;
44366;SDS011;30086;57.660;12.000;2023-05-02T15:04:12;2.75;;;0.75;;
44366;SDS011;30086;57.660;12.000;2023-05-02T15:06:41;1.20;;;0.82;;
44366;SDS011;30086;57.660;12.000;2023-05-02T15:09:29;3.22;;;2.15;;
44366;SDS011;30086;57.660;12.000;2023-05-02T15:11:55;1.65;;;1.08;;
44366;SDS011;30086;57.660;12.000;2023-05-02T15:14:22;0.50;;;0.40;;
44366;SDS011;30086;57.660;12.000;2023-05-02T15:16:50;3.33;;;0.80;;
44366;SDS011;30086;57.660;12.000;2023-05-02T15:19:17;3.85;;;0.93;;
44366;SDS011;30086;57.660;12.000;2023-05-02T15:21:45;1.90;;;0.55;;
44366;SDS011;30086;57.660;12.000;2023-05-02T15:24:15;3.83;;;1.70;;
44366;SDS011;30086;57.660;12.000;2023-05-02T15:26:42;2.30;;;1.02;;
44366;SDS011;30086;57.660;12.000;2023-05-02T15:29:09;5.65;;;0.82;;
44366;SDS011;30086;57.660;12.000;2023-05-02T15:31:35;3.28;;;0.80;;
44366;SDS011;30086;57.660;12.000;2023-05-02T15:34:02;1.65;;;0.50;;
44366;SDS011;30086;57.660;12.000;2023-05-02T15:36:28;5.60;;;1.27;;
44366;SDS011;30086;57.660;12.000;2023-05-02T15:38:58;2.55;;;0.57;;
44366;SDS011;30086;57.660;12.000;2023-05-02T15:41:24;2.42;;;0.80;;
44366;SDS011;30086;57.660;12.000;2023-05-02T15:43:51;1.15;;;0.80;;
44366;SDS011;30086;57.660;12.000;2023-05-02T15:46:17;0.80;;;0.40;;
44366;SDS011;30086;57.660;12.000;2023-05-02T15:48:45;1.88;;;0.85;;
44366;SDS011;30086;57.660;12.000;2023-05-02T15:51:11;1.15;;;0.70;;
44366;SDS011;30086;57.660;12.000;2023-05-02T15:53:37;4.25;;;0.90;;
44366;SDS011;30086;57.660;12.000;2023-05-02T15:56:07;0.80;;;0.70;;
44366;SDS011;30086;57.660;12.000;2023-05-02T15:58:49;0.85;;;0.30;;
44366;SDS011;30086;57.660;12.000;2023-05-02T16:01:18;1.45;;;0.73;;
44366;SDS011;30086;57.660;12.000;2023-05-02T16:03:48;4.85;;;1.02;;
44366;SDS011;30086;57.660;12.000;2023-05-02T16:06:14;2.47;;;1.10;;
44366;SDS011;30086;57.660;12.000;2023-05-02T16:08:41;2.35;;;1.13;;
44366;SDS011;30086;57.660;12.000;2023-05-02T16:11:07;3.10;;;0.90;;
44366;SDS011;30086;57.660;12.000;2023-05-02T16:13:34;2.95;;;0.68;;
44366;SDS011;30086;57.660;12.000;2023-05-02T16:16:01;2.28;;;0.80;;
44366;SDS011;30086;57.660;12.000;2023-05-02T16:18:29;3.88;;;0.90;;
44366;SDS011;30086;57.660;12.000;2023-05-02T16:20:56;2.85;;;0.73;;
44366;SDS011;30086;57.660;12.000;2023-05-02T16:23:24;2.55;;;0.70;;
44366;SDS011;30086;57.660;12.000;2023-05-02T16:25:57;2.75;;;0.80;;
44366;SDS011;30086;57.660;12.000;2023-05-02T16:28:23;3.17;;;0.93;;
44366;SDS011;30086;57.660;12.000;2023-05-02T16:30:50;1.25;;;0.73;;
44366;SDS011;30086;57.660;12.000;2023-05-02T16:33:16;0.88;;;0.50;;
44366;SDS011;30086;57.660;12.000;2023-05-02T16:35:43;2.60;;;1.00;;
44366;SDS011;30086;57.660;12.000;2023-05-02T16:38:09;1.77;;;0.80;;
44366;SDS011;30086;57.660;12.000;2023-05-02T16:40:36;2.95;;;0.90;;
44366;SDS011;30086;57.660;12.000;2023-05-02T16:43:02;0.90;;;0.68;;
44366;SDS011;30086;57.660;12.000;2023-05-02T16:45:36;2.33;;;0.85;;
44366;SDS011;30086;57.660;12.000;2023-05-02T16:48:22;1.95;;;0.80;;
44366;SDS011;30086;57.660;12.000;2023-05-02T16:50:49;2.72;;;0.90;;
44366;SDS011;30086;57.660;12.000;2023-05-02T16:53:17;4.15;;;1.25;;
44366;SDS011;30086;57.660;12.000;2023-05-02T16:55:45;1.40;;;0.88;;
44366;SDS011;30086;57.660;12.000;2023-05-02T16:58:11;2.88;;;1.25;;
44366;SDS011;30086;57.660;12.000;2023-05-02T17:00:39;4.97;;;1.15;;
44366;SDS011;30086;57.660;12.000;2023-05-02T17:03:05;1.05;;;0.45;;
44366;SDS011;30086;57.660;12.000;2023-05-02T17:05:33;2.10;;;0.88;;
44366;SDS011;30086;57.660;12.000;2023-05-02T17:08:08;0.85;;;0.60;;
44366;SDS011;30086;57.660;12.000;2023-05-02T17:10:34;4.63;;;0.85;;
44366;SDS011;30086;57.660;12.000;2023-05-02T17:13:00;6.93;;;1.15;;
44366;SDS011;30086;57.660;12.000;2023-05-02T17:15:27;0.88;;;0.63;;
44366;SDS011;30086;57.660;12.000;2023-05-02T17:17:54;0.82;;;0.70;;
44366;SDS011;30086;57.660;12.000;2023-05-02T17:20:20;4.05;;;0.95;;
44366;SDS011;30086;57.660;12.000;2023-05-02T17:22:46;0.40;;;0.40;;
44366;SDS011;30086;57.660;12.000;2023-05-02T17:25:12;4.88;;;1.38;;
44366;SDS011;30086;57.660;12.000;2023-05-02T17:27:38;1.70;;;0.93;;
44366;SDS011;30086;57.660;12.000;2023-05-02T17:30:06;1.08;;;0.70;;
44366;SDS011;30086;57.660;12.000;2023-05-02T17:32:32;3.75;;;1.05;;
44366;SDS011;30086;57.660;12.000;2023-05-02T17:34:59;1.80;;;0.82;;
44366;SDS011;30086;57.660;12.000;2023-05-02T17:37:25;2.05;;;1.27;;
44366;SDS011;30086;57.660;12.000;2023-05-02T17:39:52;2.90;;;0.70;;
44366;SDS011;30086;57.660;12.000;2023-05-02T17:42:18;3.42;;;1.08;;
44366;SDS011;30086;57.660;12.000;2023-05-02T17:44:45;1.60;;;0.68;;
44366;SDS011;30086;57.660;12.000;2023-05-02T17:47:12;3.90;;;1.40;;
44366;SDS011;30086;57.660;12.000;2023-05-02T17:49:41;2.65;;;1.13;;
44366;SDS011;30086;57.660;12.000;2023-05-02T17:52:07;3.17;;;0.70;;
44366;SDS011;30086;57.660;12.000;2023-05-02T17:54:33;2.92;;;0.93;;
44366;SDS011;30086;57.660;12.000;2023-05-02T17:56:59;5.00;;;0.80;;
44366;SDS011;30086;57.660;12.000;2023-05-02T17:59:25;1.85;;;1.00;;
44366;SDS011;30086;57.660;12.000;2023-05-02T18:01:52;2.53;;;1.02;;
44366;SDS011;30086;57.660;12.000;2023-05-02T18:04:19;2.25;;;1.00;;
44366;SDS011;30086;57.660;12.000;2023-05-02T18:06:47;2.97;;;1.13;;
44366;SDS011;30086;57.660;12.000;2023-05-02T18:09:14;4.47;;;1.05;;